sensor_id;sensor_type;location;lat;lon;timestamp;P1;durP1;ratioP1;P2;durP2;ratioP2
21243;SDS011;10780;50.942;4.028;2022-09-12T00:03:56;12.35;;;10.88;;
21243;SDS011;10780;50.942;4.028;2022-09-12T00:06:28;13.00;;;10.95;;
21243;SDS011;10780;50.942;4.028;2022-09-12T00:08:57;12.70;;;11.02;;
21243;SDS011;10780;50.942;4.028;2022-09-12T00:11:24;13.88;;;12.35;;
21243;SDS011;10780;50.942;4.028;2022-09-12T00:13:51;14.32;;;10.93;;
21243;SDS011;10780;50.942;4.028;2022-09-12T00:16:25;11.43;;;10.27;;
21243;SDS011;10780;50.942;4.028;2022-09-12T00:18:52;13.60;;;11.23;;
21243;SDS011;10780;50.942;4.028;2022-09-12T00:21:18;13.70;;;11.30;;
21243;SDS011;10780;50.942;4.028;2022-09-12T00:23:44;11.90;;;10.38;;
21243;SDS011;10780;50.942;4.028;2022-09-12T00:26:11;13.80;;;10.60;;
21243;SDS011;10780;50.942;4.028;2022-09-12T00:28:38;11.50;;;10.30;;
21243;SDS011;10780;50.942;4.028;2022-09-12T00:31:05;13.45;;;10.70;;
21243;SDS011;10780;50.942;4.028;2022-09-12T00:33:33;12.88;;;10.75;;
21243;SDS011;10780;50.942;4.028;2022-09-12T00:36:02;13.10;;;11.25;;
21243;SDS011;10780;50.942;4.028;2022-09-12T00:38:33;13.82;;;11.25;;
21243;SDS011;10780;50.942;4.028;2022-09-12T00:41:02;12.57;;;11.07;;
21243;SDS011;10780;50.942;4.028;2022-09-12T00:45:55;13.30;;;11.77;;
21243;SDS011;10780;50.942;4.028;2022-09-12T00:48:29;12.75;;;10.93;;
21243;SDS011;10780;50.942;4.028;2022-09-12T00:50:58;15.02;;;12.43;;
21243;SDS011;10780;50.942;4.028;2022-09-12T00:53:25;15.55;;;11.57;;
21243;SDS011;10780;50.942;4.028;2022-09-12T00:55:50;14.98;;;11.30;;
21243;SDS011;10780;50.942;4.028;2022-09-12T00:58:19;14.00;;;10.98;;
21243;SDS011;10780;50.942;4.028;2022-09-12T01:00:48;16.40;;;11.63;;
21243;SDS011;10780;50.942;4.028;2022-09-12T01:03:15;13.27;;;10.90;;
21243;SDS011;10780;50.942;4.028;2022-09-12T01:05:46;15.07;;;12.13;;
21243;SDS011;10780;50.942;4.028;2022-09-12T01:08:34;14.30;;;10.82;;
21243;SDS011;10780;50.942;4.028;2022-09-12T01:11:04;17.23;;;11.05;;
21243;SDS011;10780;50.942;4.028;2022-09-12T01:13:33;14.48;;;10.95;;
21243;SDS011;10780;50.942;4.028;2022-09-12T01:16:00;15.30;;;10.90;;
21243;SDS011;10780;50.942;4.028;2022-09-12T01:27:22;13.65;;;10.65;;
21243;SDS011;10780;50.942;4.028;2022-09-12T01:35:34;12.02;;;10.40;;
21243;SDS011;10780;50.942;4.028;2022-09-12T01:43:36;14.68;;;11.75;;
21243;SDS011;10780;50.942;4.028;2022-09-12T01:46:15;14.48;;;11.48;;
21243;SDS011;10780;50.942;4.028;2022-09-12T01:48:54;16.88;;;11.45;;
21243;SDS011;10780;50.942;4.028;2022-09-12T01:54:48;16.17;;;11.25;;
21243;SDS011;10780;50.942;4.028;2022-09-12T01:57:23;15.77;;;13.07;;
21243;SDS011;10780;50.942;4.028;2022-09-12T01:59:57;15.27;;;11.95;;
21243;SDS011;10780;50.942;4.028;2022-09-12T02:02:29;17.15;;;12.23;;
21243;SDS011;10780;50.942;4.028;2022-09-12T02:05:08;14.02;;;11.93;;
21243;SDS011;10780;50.942;4.028;2022-09-12T02:07:51;15.18;;;12.75;;
21243;SDS011;10780;50.942;4.028;2022-09-12T02:10:22;16.80;;;12.57;;
21243;SDS011;10780;50.942;4.028;2022-09-12T02:13:04;16.73;;;12.30;;
21243;SDS011;10780;50.942;4.028;2022-09-12T02:15:45;15.02;;;11.80;;
21243;SDS011;10780;50.942;4.028;2022-09-12T02:18:17;16.63;;;11.48;;
21243;SDS011;10780;50.942;4.028;2022-09-12T02:20:45;15.50;;;12.60;;
21243;SDS011;10780;50.942;4.028;2022-09-12T02:23:13;15.10;;;11.90;;
21243;SDS011;10780;50.942;4.028;2022-09-12T02:25:43;16.42;;;12.98;;
21243;SDS011;10780;50.942;4.028;2022-09-12T02:28:20;15.70;;;12.68;;
21243;SDS011;10780;50.942;4.028;2022-09-12T02:33:26;16.55;;;12.98;;
21243;SDS011;10780;50.942;4.028;2022-09-12T02:38:51;15.23;;;12.05;;
21243;SDS011;10780;50.942;4.028;2022-09-12T02:41:19;18.05;;;12.90;;
21243;SDS011;10780;50.942;4.028;2022-09-12T02:43:46;18.30;;;12.88;;
21243;SDS011;10780;50.942;4.028;2022-09-12T02:46:28;14.77;;;12.52;;
21243;SDS011;10780;50.942;4.028;2022-09-12T02:49:02;15.75;;;12.73;;
21243;SDS011;10780;50.942;4.028;2022-09-12T02:51:27;15.93;;;13.25;;
21243;SDS011;10780;50.942;4.028;2022-09-12T02:53:54;16.33;;;12.57;;
21243;SDS011;10780;50.942;4.028;2022-09-12T02:56:22;16.05;;;13.27;;
21243;SDS011;10780;50.942;4.028;2022-09-12T02:58:52;16.55;;;13.13;;
21243;SDS011;10780;50.942;4.028;2022-09-12T03:01:27;16.02;;;12.40;;
21243;SDS011;10780;50.942;4.028;2022-09-12T03:10:29;15.95;;;12.75;;
21243;SDS011;10780;50.942;4.028;2022-09-12T03:13:21;18.65;;;13.30;;
21243;SDS011;10780;50.942;4.028;2022-09-12T03:16:11;18.30;;;13.68;;
21243;SDS011;10780;50.942;4.028;2022-09-12T03:18:41;18.52;;;13.02;;
21243;SDS011;10780;50.942;4.028;2022-09-12T03:29:34;15.82;;;12.27;;
21243;SDS011;10780;50.942;4.028;2022-09-12T03:32:02;16.70;;;12.73;;
21243;SDS011;10780;50.942;4.028;2022-09-12T03:34:28;19.05;;;13.90;;
21243;SDS011;10780;50.942;4.028;2022-09-12T03:36:54;16.65;;;13.10;;
21243;SDS011;10780;50.942;4.028;2022-09-12T03:39:20;16.52;;;13.65;;
21243;SDS011;10780;50.942;4.028;2022-09-12T03:41:48;19.10;;;13.35;;
21243;SDS011;10780;50.942;4.028;2022-09-12T03:44:14;20.45;;;13.82;;
21243;SDS011;10780;50.942;4.028;2022-09-12T03:46:40;16.30;;;13.38;;
21243;SDS011;10780;50.942;4.028;2022-09-12T03:49:06;18.30;;;13.25;;
21243;SDS011;10780;50.942;4.028;2022-09-12T03:51:31;19.20;;;12.85;;
21243;SDS011;10780;50.942;4.028;2022-09-12T03:53:57;18.50;;;14.02;;
21243;SDS011;10780;50.942;4.028;2022-09-12T03:56:22;16.60;;;13.10;;
21243;SDS011;10780;50.942;4.028;2022-09-12T03:58:48;20.30;;;13.20;;
21243;SDS011;10780;50.942;4.028;2022-09-12T04:01:15;16.65;;;13.73;;
21243;SDS011;10780;50.942;4.028;2022-09-12T04:03:42;17.17;;;13.60;;
21243;SDS011;10780;50.942;4.028;2022-09-12T04:06:09;16.83;;;13.00;;
21243;SDS011;10780;50.942;4.028;2022-09-12T04:08:38;19.63;;;13.80;;
21243;SDS011;10780;50.942;4.028;2022-09-12T04:11:13;18.92;;;13.05;;
21243;SDS011;10780;50.942;4.028;2022-09-12T04:13:40;17.67;;;14.48;;
21243;SDS011;10780;50.942;4.028;2022-09-12T04:16:07;19.30;;;13.30;;
21243;SDS011;10780;50.942;4.028;2022-09-12T04:18:34;20.27;;;14.52;;
21243;SDS011;10780;50.942;4.028;2022-09-12T04:21:07;20.30;;;14.15;;
21243;SDS011;10780;50.942;4.028;2022-09-12T04:23:35;18.25;;;14.23;;
21243;SDS011;10780;50.942;4.028;2022-09-12T04:26:01;19.58;;;14.18;;
21243;SDS011;10780;50.942;4.028;2022-09-12T04:28:30;18.90;;;13.38;;
21243;SDS011;10780;50.942;4.028;2022-09-12T04:31:00;20.92;;;14.80;;
21243;SDS011;10780;50.942;4.028;2022-09-12T04:33:26;19.90;;;14.50;;
21243;SDS011;10780;50.942;4.028;2022-09-12T04:35:52;20.27;;;15.38;;
21243;SDS011;10780;50.942;4.028;2022-09-12T04:38:17;20.83;;;15.30;;
21243;SDS011;10780;50.942;4.028;2022-09-12T04:40:43;22.63;;;15.52;;
21243;SDS011;10780;50.942;4.028;2022-09-12T04:43:08;20.67;;;15.40;;
21243;SDS011;10780;50.942;4.028;2022-09-12T04:45:34;20.13;;;15.50;;
21243;SDS011;10780;50.942;4.028;2022-09-12T04:48:00;21.35;;;15.70;;
21243;SDS011;10780;50.942;4.028;2022-09-12T04:50:26;22.80;;;16.05;;
21243;SDS011;10780;50.942;4.028;2022-09-12T04:52:52;21.92;;;15.52;;
21243;SDS011;10780;50.942;4.028;2022-09-12T04:55:19;23.15;;;15.65;;
21243;SDS011;10780;50.942;4.028;2022-09-12T04:57:45;25.40;;;16.92;;
21243;SDS011;10780;50.942;4.028;2022-09-12T05:00:11;23.65;;;15.65;;
21243;SDS011;10780;50.942;4.028;2022-09-12T05:02:39;23.30;;;17.10;;
21243;SDS011;10780;50.942;4.028;2022-09-12T05:05:05;23.30;;;16.63;;
21243;SDS011;10780;50.942;4.028;2022-09-12T05:07:31;23.42;;;17.50;;
21243;SDS011;10780;50.942;4.028;2022-09-12T05:09:57;24.58;;;16.27;;
21243;SDS011;10780;50.942;4.028;2022-09-12T05:12:23;24.75;;;17.10;;
21243;SDS011;10780;50.942;4.028;2022-09-12T05:14:48;24.48;;;17.27;;
21243;SDS011;10780;50.942;4.028;2022-09-12T05:17:14;24.35;;;16.92;;
21243;SDS011;10780;50.942;4.028;2022-09-12T05:19:40;25.92;;;16.85;;
21243;SDS011;10780;50.942;4.028;2022-09-12T05:22:05;21.88;;;16.50;;
21243;SDS011;10780;50.942;4.028;2022-09-12T05:24:31;26.88;;;18.02;;
21243;SDS011;10780;50.942;4.028;2022-09-12T05:26:57;25.10;;;17.58;;
21243;SDS011;10780;50.942;4.028;2022-09-12T05:29:23;25.10;;;18.00;;
21243;SDS011;10780;50.942;4.028;2022-09-12T05:31:49;26.13;;;17.70;;
21243;SDS011;10780;50.942;4.028;2022-09-12T05:34:17;25.48;;;17.35;;
21243;SDS011;10780;50.942;4.028;2022-09-12T05:36:44;23.77;;;16.95;;
21243;SDS011;10780;50.942;4.028;2022-09-12T05:39:09;28.65;;;17.63;;
21243;SDS011;10780;50.942;4.028;2022-09-12T05:41:35;24.90;;;17.42;;
21243;SDS011;10780;50.942;4.028;2022-09-12T05:44:02;22.98;;;16.33;;
21243;SDS011;10780;50.942;4.028;2022-09-12T05:46:30;26.63;;;16.92;;
21243;SDS011;10780;50.942;4.028;2022-09-12T05:49:07;21.85;;;16.23;;
21243;SDS011;10780;50.942;4.028;2022-09-12T05:51:35;23.15;;;16.30;;
21243;SDS011;10780;50.942;4.028;2022-09-12T05:54:02;23.25;;;17.33;;
21243;SDS011;10780;50.942;4.028;2022-09-12T05:56:31;23.52;;;17.20;;
21243;SDS011;10780;50.942;4.028;2022-09-12T05:59:05;21.88;;;15.90;;
21243;SDS011;10780;50.942;4.028;2022-09-12T06:01:35;24.27;;;17.50;;
21243;SDS011;10780;50.942;4.028;2022-09-12T06:04:02;22.50;;;17.60;;
21243;SDS011;10780;50.942;4.028;2022-09-12T06:06:30;22.70;;;17.10;;
21243;SDS011;10780;50.942;4.028;2022-09-12T06:08:58;27.60;;;20.50;;
21243;SDS011;10780;50.942;4.028;2022-09-12T06:11:26;22.85;;;16.40;;
21243;SDS011;10780;50.942;4.028;2022-09-12T06:13:57;23.08;;;17.80;;
21243;SDS011;10780;50.942;4.028;2022-09-12T06:16:24;22.80;;;17.52;;
21243;SDS011;10780;50.942;4.028;2022-09-12T06:18:56;21.63;;;16.48;;
21243;SDS011;10780;50.942;4.028;2022-09-12T06:21:27;23.08;;;16.75;;
21243;SDS011;10780;50.942;4.028;2022-09-12T06:23:55;20.08;;;15.98;;
21243;SDS011;10780;50.942;4.028;2022-09-12T06:26:26;23.92;;;16.80;;
21243;SDS011;10780;50.942;4.028;2022-09-12T06:28:53;23.15;;;16.40;;
21243;SDS011;10780;50.942;4.028;2022-09-12T06:31:24;22.27;;;16.17;;
21243;SDS011;10780;50.942;4.028;2022-09-12T06:33:56;24.67;;;15.85;;
21243;SDS011;10780;50.942;4.028;2022-09-12T06:36:27;24.65;;;15.70;;
21243;SDS011;10780;50.942;4.028;2022-09-12T06:38:55;19.75;;;15.02;;
21243;SDS011;10780;50.942;4.028;2022-09-12T06:41:25;19.95;;;14.60;;
21243;SDS011;10780;50.942;4.028;2022-09-12T06:43:52;19.10;;;14.57;;
21243;SDS011;10780;50.942;4.028;2022-09-12T06:46:18;19.80;;;15.75;;
21243;SDS011;10780;50.942;4.028;2022-09-12T06:48:44;21.67;;;14.50;;
21243;SDS011;10780;50.942;4.028;2022-09-12T06:51:10;21.20;;;15.05;;
21243;SDS011;10780;50.942;4.028;2022-09-12T06:53:37;19.13;;;14.20;;
21243;SDS011;10780;50.942;4.028;2022-09-12T06:56:10;22.30;;;14.85;;
21243;SDS011;10780;50.942;4.028;2022-09-12T06:58:38;19.17;;;13.70;;
21243;SDS011;10780;50.942;4.028;2022-09-12T07:01:08;20.60;;;15.35;;
21243;SDS011;10780;50.942;4.028;2022-09-12T07:03:35;17.98;;;13.50;;
21243;SDS011;10780;50.942;4.028;2022-09-12T07:06:12;20.13;;;14.35;;
21243;SDS011;10780;50.942;4.028;2022-09-12T07:08:39;20.45;;;14.38;;
21243;SDS011;10780;50.942;4.028;2022-09-12T07:11:09;20.67;;;14.85;;
21243;SDS011;10780;50.942;4.028;2022-09-12T07:13:40;19.08;;;13.70;;
21243;SDS011;10780;50.942;4.028;2022-09-12T07:16:07;19.17;;;13.57;;
21243;SDS011;10780;50.942;4.028;2022-09-12T07:18:34;18.90;;;14.32;;
21243;SDS011;10780;50.942;4.028;2022-09-12T07:21:02;20.98;;;14.15;;
21243;SDS011;10780;50.942;4.028;2022-09-12T07:23:30;18.10;;;14.10;;
21243;SDS011;10780;50.942;4.028;2022-09-12T07:25:57;19.33;;;13.23;;
21243;SDS011;10780;50.942;4.028;2022-09-12T07:28:25;18.10;;;12.43;;
21243;SDS011;10780;50.942;4.028;2022-09-12T07:30:52;17.35;;;11.85;;
21243;SDS011;10780;50.942;4.028;2022-09-12T07:33:26;15.82;;;11.45;;
21243;SDS011;10780;50.942;4.028;2022-09-12T07:35:52;17.77;;;11.23;;
21243;SDS011;10780;50.942;4.028;2022-09-12T07:38:18;18.27;;;11.63;;
21243;SDS011;10780;50.942;4.028;2022-09-12T07:40:45;17.30;;;11.93;;
21243;SDS011;10780;50.942;4.028;2022-09-12T07:43:11;20.05;;;13.55;;
21243;SDS011;10780;50.942;4.028;2022-09-12T07:45:36;17.77;;;13.13;;
21243;SDS011;10780;50.942;4.028;2022-09-12T07:48:05;18.50;;;12.02;;
21243;SDS011;10780;50.942;4.028;2022-09-12T07:50:32;18.23;;;12.45;;
21243;SDS011;10780;50.942;4.028;2022-09-12T07:52:58;17.67;;;12.52;;
21243;SDS011;10780;50.942;4.028;2022-09-12T07:55:23;18.85;;;13.15;;
21243;SDS011;10780;50.942;4.028;2022-09-12T07:57:50;18.77;;;12.32;;
21243;SDS011;10780;50.942;4.028;2022-09-12T08:00:16;15.55;;;12.32;;
21243;SDS011;10780;50.942;4.028;2022-09-12T08:02:42;18.52;;;12.50;;
21243;SDS011;10780;50.942;4.028;2022-09-12T08:05:09;15.57;;;12.90;;
21243;SDS011;10780;50.942;4.028;2022-09-12T08:07:35;16.88;;;12.57;;
21243;SDS011;10780;50.942;4.028;2022-09-12T08:10:01;19.25;;;13.60;;
21243;SDS011;10780;50.942;4.028;2022-09-12T08:12:35;23.40;;;13.48;;
21243;SDS011;10780;50.942;4.028;2022-09-12T08:15:02;17.13;;;12.68;;
21243;SDS011;10780;50.942;4.028;2022-09-12T08:17:29;16.38;;;11.88;;
21243;SDS011;10780;50.942;4.028;2022-09-12T08:19:56;18.27;;;11.75;;
21243;SDS011;10780;50.942;4.028;2022-09-12T08:22:22;16.27;;;11.73;;
21243;SDS011;10780;50.942;4.028;2022-09-12T08:24:49;12.70;;;10.90;;
21243;SDS011;10780;50.942;4.028;2022-09-12T08:27:15;18.75;;;11.48;;
21243;SDS011;10780;50.942;4.028;2022-09-12T08:29:41;15.70;;;10.65;;
21243;SDS011;10780;50.942;4.028;2022-09-12T08:32:07;16.17;;;11.23;;
21243;SDS011;10780;50.942;4.028;2022-09-12T08:34:32;12.05;;;10.52;;
21243;SDS011;10780;50.942;4.028;2022-09-12T08:36:58;17.23;;;10.38;;
21243;SDS011;10780;50.942;4.028;2022-09-12T08:39:24;18.08;;;11.45;;
21243;SDS011;10780;50.942;4.028;2022-09-12T08:47:09;12.43;;;9.57;;
21243;SDS011;10780;50.942;4.028;2022-09-12T08:49:37;13.07;;;9.52;;
21243;SDS011;10780;50.942;4.028;2022-09-12T08:55:21;15.75;;;10.32;;
21243;SDS011;10780;50.942;4.028;2022-09-12T08:58:01;15.75;;;10.40;;
21243;SDS011;10780;50.942;4.028;2022-09-12T09:00:49;12.52;;;9.23;;
21243;SDS011;10780;50.942;4.028;2022-09-12T09:06:34;14.77;;;9.35;;
21243;SDS011;10780;50.942;4.028;2022-09-12T09:09:20;12.80;;;9.27;;
21243;SDS011;10780;50.942;4.028;2022-09-12T09:22:48;9.98;;;8.05;;
21243;SDS011;10780;50.942;4.028;2022-09-12T09:25:36;12.20;;;8.20;;
21243;SDS011;10780;50.942;4.028;2022-09-12T09:31:11;7.45;;;6.07;;
21243;SDS011;10780;50.942;4.028;2022-09-12T09:33:39;7.80;;;6.50;;
21243;SDS011;10780;50.942;4.028;2022-09-12T09:44:24;8.95;;;6.05;;
21243;SDS011;10780;50.942;4.028;2022-09-12T09:46:53;9.00;;;5.78;;
21243;SDS011;10780;50.942;4.028;2022-09-12T09:49:22;9.73;;;7.13;;
21243;SDS011;10780;50.942;4.028;2022-09-12T09:51:51;9.75;;;6.45;;
21243;SDS011;10780;50.942;4.028;2022-09-12T09:54:18;8.13;;;5.70;;
21243;SDS011;10780;50.942;4.028;2022-09-12T09:56:48;8.82;;;6.68;;
21243;SDS011;10780;50.942;4.028;2022-09-12T09:59:18;9.82;;;6.65;;
21243;SDS011;10780;50.942;4.028;2022-09-12T10:01:52;11.43;;;8.15;;
21243;SDS011;10780;50.942;4.028;2022-09-12T10:04:31;10.60;;;6.63;;
21243;SDS011;10780;50.942;4.028;2022-09-12T10:07:00;12.45;;;6.75;;
21243;SDS011;10780;50.942;4.028;2022-09-12T10:11:57;6.88;;;4.82;;
21243;SDS011;10780;50.942;4.028;2022-09-12T10:14:27;6.55;;;5.70;;
21243;SDS011;10780;50.942;4.028;2022-09-12T10:16:54;9.48;;;5.60;;
21243;SDS011;10780;50.942;4.028;2022-09-12T10:19:42;5.40;;;4.90;;
21243;SDS011;10780;50.942;4.028;2022-09-12T10:22:12;8.10;;;6.32;;
21243;SDS011;10780;50.942;4.028;2022-09-12T10:24:45;11.98;;;7.95;;
21243;SDS011;10780;50.942;4.028;2022-09-12T10:27:32;8.35;;;6.68;;
21243;SDS011;10780;50.942;4.028;2022-09-12T10:32:40;9.93;;;7.05;;
21243;SDS011;10780;50.942;4.028;2022-09-12T10:40:21;5.57;;;4.95;;
21243;SDS011;10780;50.942;4.028;2022-09-12T10:42:59;6.95;;;4.40;;
21243;SDS011;10780;50.942;4.028;2022-09-12T10:45:33;7.57;;;4.97;;
21243;SDS011;10780;50.942;4.028;2022-09-12T10:48:02;10.10;;;6.50;;
21243;SDS011;10780;50.942;4.028;2022-09-12T10:50:49;5.80;;;4.82;;
21243;SDS011;10780;50.942;4.028;2022-09-12T10:53:20;11.57;;;7.10;;
21243;SDS011;10780;50.942;4.028;2022-09-12T11:15:02;8.95;;;5.20;;
21243;SDS011;10780;50.942;4.028;2022-09-12T11:20:03;5.70;;;4.68;;
21243;SDS011;10780;50.942;4.028;2022-09-12T11:25:35;6.68;;;5.30;;
21243;SDS011;10780;50.942;4.028;2022-09-12T11:28:53;6.03;;;4.47;;
21243;SDS011;10780;50.942;4.028;2022-09-12T11:34:12;4.95;;;3.28;;
21243;SDS011;10780;50.942;4.028;2022-09-12T11:37:02;4.88;;;3.50;;
21243;SDS011;10780;50.942;4.028;2022-09-12T11:39:42;6.55;;;5.15;;
21243;SDS011;10780;50.942;4.028;2022-09-12T11:42:15;5.57;;;3.97;;
21243;SDS011;10780;50.942;4.028;2022-09-12T11:44:49;4.43;;;3.90;;
21243;SDS011;10780;50.942;4.028;2022-09-12T11:47:48;4.18;;;3.80;;
21243;SDS011;10780;50.942;4.028;2022-09-12T11:50:21;4.82;;;4.25;;
21243;SDS011;10780;50.942;4.028;2022-09-12T11:53:02;4.72;;;3.67;;
21243;SDS011;10780;50.942;4.028;2022-09-12T11:56:03;5.72;;;3.80;;
21243;SDS011;10780;50.942;4.028;2022-09-12T11:58:25;6.18;;;3.83;;
21243;SDS011;10780;50.942;4.028;2022-09-12T12:00:55;3.90;;;3.60;;
21243;SDS011;10780;50.942;4.028;2022-09-12T12:03:44;4.45;;;3.78;;
21243;SDS011;10780;50.942;4.028;2022-09-12T12:06:13;4.82;;;3.50;;
21243;SDS011;10780;50.942;4.028;2022-09-12T12:08:43;4.57;;;3.88;;
21243;SDS011;10780;50.942;4.028;2022-09-12T12:11:12;4.70;;;3.67;;
21243;SDS011;10780;50.942;4.028;2022-09-12T12:13:58;6.45;;;4.15;;
21243;SDS011;10780;50.942;4.028;2022-09-12T12:16:27;3.83;;;3.50;;
21243;SDS011;10780;50.942;4.028;2022-09-12T12:21:46;5.00;;;3.30;;
21243;SDS011;10780;50.942;4.028;2022-09-12T12:24:20;3.72;;;3.42;;
21243;SDS011;10780;50.942;4.028;2022-09-12T12:26:55;4.32;;;3.92;;
21243;SDS011;10780;50.942;4.028;2022-09-12T12:34:35;5.03;;;3.80;;
21243;SDS011;10780;50.942;4.028;2022-09-12T12:45:44;4.03;;;3.33;;
21243;SDS011;10780;50.942;4.028;2022-09-12T12:47:52;4.10;;;3.22;;
21243;SDS011;10780;50.942;4.028;2022-09-12T12:50:23;3.40;;;3.10;;
21243;SDS011;10780;50.942;4.028;2022-09-12T12:52:58;3.53;;;3.13;;
21243;SDS011;10780;50.942;4.028;2022-09-12T12:55:33;5.18;;;3.53;;
21243;SDS011;10780;50.942;4.028;2022-09-12T12:58:01;6.90;;;3.65;;
21243;SDS011;10780;50.942;4.028;2022-09-12T13:05:24;3.55;;;3.05;;
21243;SDS011;10780;50.942;4.028;2022-09-12T13:07:59;4.53;;;3.00;;
21243;SDS011;10780;50.942;4.028;2022-09-12T13:10:31;3.20;;;2.95;;
21243;SDS011;10780;50.942;4.028;2022-09-12T13:13:01;3.20;;;3.00;;
21243;SDS011;10780;50.942;4.028;2022-09-12T13:18:02;4.78;;;3.03;;
21243;SDS011;10780;50.942;4.028;2022-09-12T13:20:55;5.38;;;3.20;;
21243;SDS011;10780;50.942;4.028;2022-09-12T13:23:38;3.90;;;3.05;;
21243;SDS011;10780;50.942;4.028;2022-09-12T13:26:09;5.45;;;3.45;;
21243;SDS011;10780;50.942;4.028;2022-09-12T13:28:37;5.50;;;3.15;;
21243;SDS011;10780;50.942;4.028;2022-09-12T13:33:51;4.20;;;2.80;;
21243;SDS011;10780;50.942;4.028;2022-09-12T13:39:03;3.75;;;3.30;;
21243;SDS011;10780;50.942;4.028;2022-09-12T13:42:03;3.65;;;2.97;;
21243;SDS011;10780;50.942;4.028;2022-09-12T13:47:35;3.40;;;3.10;;
21243;SDS011;10780;50.942;4.028;2022-09-12T13:50:11;5.55;;;3.33;;
21243;SDS011;10780;50.942;4.028;2022-09-12T13:53:00;7.80;;;2.92;;
21243;SDS011;10780;50.942;4.028;2022-09-12T13:55:32;3.22;;;2.60;;
21243;SDS011;10780;50.942;4.028;2022-09-12T13:58:05;3.92;;;2.78;;
21243;SDS011;10780;50.942;4.028;2022-09-12T14:00:39;5.43;;;2.92;;
21243;SDS011;10780;50.942;4.028;2022-09-12T14:03:39;4.80;;;2.67;;
21243;SDS011;10780;50.942;4.028;2022-09-12T14:06:17;5.70;;;3.03;;
21243;SDS011;10780;50.942;4.028;2022-09-12T14:08:47;3.53;;;3.22;;
21243;SDS011;10780;50.942;4.028;2022-09-12T14:11:26;4.53;;;2.92;;
21243;SDS011;10780;50.942;4.028;2022-09-12T14:13:53;3.58;;;2.72;;
21243;SDS011;10780;50.942;4.028;2022-09-12T14:16:20;3.78;;;3.47;;
21243;SDS011;10780;50.942;4.028;2022-09-12T14:18:48;3.33;;;2.60;;
21243;SDS011;10780;50.942;4.028;2022-09-12T14:23:56;4.78;;;2.15;;
21243;SDS011;10780;50.942;4.028;2022-09-12T14:26:23;2.25;;;2.05;;
21243;SDS011;10780;50.942;4.028;2022-09-12T14:28:50;2.80;;;2.50;;
21243;SDS011;10780;50.942;4.028;2022-09-12T14:33:49;3.33;;;2.17;;
21243;SDS011;10780;50.942;4.028;2022-09-12T14:38:55;3.70;;;2.55;;
21243;SDS011;10780;50.942;4.028;2022-09-12T14:41:28;2.95;;;2.20;;
21243;SDS011;10780;50.942;4.028;2022-09-12T14:43:58;2.60;;;1.83;;
21243;SDS011;10780;50.942;4.028;2022-09-12T14:46:27;2.42;;;2.22;;
21243;SDS011;10780;50.942;4.028;2022-09-12T14:49:01;2.72;;;1.90;;
21243;SDS011;10780;50.942;4.028;2022-09-12T14:51:31;2.75;;;2.20;;
21243;SDS011;10780;50.942;4.028;2022-09-12T14:53:59;3.33;;;1.77;;
21243;SDS011;10780;50.942;4.028;2022-09-12T14:56:41;3.50;;;1.90;;
21243;SDS011;10780;50.942;4.028;2022-09-12T15:04:38;2.63;;;1.90;;
21243;SDS011;10780;50.942;4.028;2022-09-12T15:09:56;3.53;;;1.92;;
21243;SDS011;10780;50.942;4.028;2022-09-12T15:12:24;5.45;;;1.85;;
21243;SDS011;10780;50.942;4.028;2022-09-12T15:14:50;1.77;;;1.60;;
21243;SDS011;10780;50.942;4.028;2022-09-12T15:17:15;2.42;;;1.60;;
21243;SDS011;10780;50.942;4.028;2022-09-12T15:19:41;4.55;;;1.85;;
21243;SDS011;10780;50.942;4.028;2022-09-12T15:22:09;2.92;;;1.77;;
21243;SDS011;10780;50.942;4.028;2022-09-12T15:24:36;2.35;;;2.15;;
21243;SDS011;10780;50.942;4.028;2022-09-12T15:27:04;1.95;;;1.73;;
21243;SDS011;10780;50.942;4.028;2022-09-12T15:29:35;1.95;;;1.60;;
21243;SDS011;10780;50.942;4.028;2022-09-12T15:32:01;2.38;;;1.70;;
21243;SDS011;10780;50.942;4.028;2022-09-12T15:34:28;2.17;;;1.60;;
21243;SDS011;10780;50.942;4.028;2022-09-12T15:36:53;3.67;;;2.05;;
21243;SDS011;10780;50.942;4.028;2022-09-12T15:39:19;2.55;;;1.70;;
21243;SDS011;10780;50.942;4.028;2022-09-12T15:41:44;1.65;;;1.45;;
21243;SDS011;10780;50.942;4.028;2022-09-12T15:44:12;3.13;;;1.50;;
21243;SDS011;10780;50.942;4.028;2022-09-12T15:46:38;2.33;;;1.60;;
21243;SDS011;10780;50.942;4.028;2022-09-12T15:49:04;2.92;;;1.85;;
21243;SDS011;10780;50.942;4.028;2022-09-12T15:51:33;2.70;;;1.70;;
21243;SDS011;10780;50.942;4.028;2022-09-12T15:53:59;2.38;;;1.60;;
21243;SDS011;10780;50.942;4.028;2022-09-12T15:56:27;1.83;;;1.42;;
21243;SDS011;10780;50.942;4.028;2022-09-12T15:58:53;2.90;;;1.70;;
21243;SDS011;10780;50.942;4.028;2022-09-12T16:01:18;2.00;;;1.80;;
21243;SDS011;10780;50.942;4.028;2022-09-12T16:03:44;3.35;;;2.05;;
21243;SDS011;10780;50.942;4.028;2022-09-12T16:06:11;2.70;;;1.90;;
21243;SDS011;10780;50.942;4.028;2022-09-12T16:08:39;3.55;;;1.90;;
21243;SDS011;10780;50.942;4.028;2022-09-12T16:11:12;3.25;;;1.75;;
21243;SDS011;10780;50.942;4.028;2022-09-12T16:13:41;2.78;;;2.45;;
21243;SDS011;10780;50.942;4.028;2022-09-12T16:16:07;2.00;;;1.90;;
21243;SDS011;10780;50.942;4.028;2022-09-12T16:18:33;7.30;;;2.40;;
21243;SDS011;10780;50.942;4.028;2022-09-12T16:20:59;2.90;;;2.00;;
21243;SDS011;10780;50.942;4.028;2022-09-12T16:23:24;4.25;;;2.38;;
21243;SDS011;10780;50.942;4.028;2022-09-12T16:26:00;4.32;;;2.30;;
21243;SDS011;10780;50.942;4.028;2022-09-12T16:28:27;2.05;;;1.85;;
21243;SDS011;10780;50.942;4.028;2022-09-12T16:30:56;2.85;;;1.67;;
21243;SDS011;10780;50.942;4.028;2022-09-12T16:33:24;2.33;;;1.50;;
21243;SDS011;10780;50.942;4.028;2022-09-12T16:35:50;2.90;;;1.92;;
21243;SDS011;10780;50.942;4.028;2022-09-12T16:38:19;5.40;;;1.75;;
21243;SDS011;10780;50.942;4.028;2022-09-12T16:40:45;1.70;;;1.60;;
21243;SDS011;10780;50.942;4.028;2022-09-12T16:43:11;3.08;;;1.95;;
21243;SDS011;10780;50.942;4.028;2022-09-12T16:45:37;2.67;;;2.00;;
21243;SDS011;10780;50.942;4.028;2022-09-12T16:48:03;2.45;;;1.50;;
21243;SDS011;10780;50.942;4.028;2022-09-12T16:50:28;1.73;;;1.50;;
21243;SDS011;10780;50.942;4.028;2022-09-12T16:52:54;1.70;;;1.60;;
21243;SDS011;10780;50.942;4.028;2022-09-12T16:55:20;2.47;;;1.70;;
21243;SDS011;10780;50.942;4.028;2022-09-12T16:57:46;3.97;;;1.80;;
21243;SDS011;10780;50.942;4.028;2022-09-12T17:00:13;3.45;;;2.00;;
21243;SDS011;10780;50.942;4.028;2022-09-12T17:02:39;1.90;;;1.80;;
21243;SDS011;10780;50.942;4.028;2022-09-12T17:05:05;5.28;;;2.33;;
21243;SDS011;10780;50.942;4.028;2022-09-12T17:07:30;3.28;;;1.60;;
21243;SDS011;10780;50.942;4.028;2022-09-12T17:09:57;4.40;;;2.17;;
21243;SDS011;10780;50.942;4.028;2022-09-12T17:12:22;1.75;;;1.50;;
21243;SDS011;10780;50.942;4.028;2022-09-12T17:14:48;4.78;;;1.77;;
21243;SDS011;10780;50.942;4.028;2022-09-12T17:17:13;2.17;;;1.60;;
21243;SDS011;10780;50.942;4.028;2022-09-12T17:19:39;2.58;;;2.13;;
21243;SDS011;10780;50.942;4.028;2022-09-12T17:22:05;2.15;;;1.40;;
21243;SDS011;10780;50.942;4.028;2022-09-12T17:24:30;2.58;;;1.70;;
21243;SDS011;10780;50.942;4.028;2022-09-12T17:26:57;2.47;;;1.70;;
21243;SDS011;10780;50.942;4.028;2022-09-12T17:29:23;1.98;;;1.67;;
21243;SDS011;10780;50.942;4.028;2022-09-12T17:31:49;2.47;;;1.70;;
21243;SDS011;10780;50.942;4.028;2022-09-12T17:34:14;3.28;;;1.70;;
21243;SDS011;10780;50.942;4.028;2022-09-12T17:36:41;3.13;;;1.95;;
21243;SDS011;10780;50.942;4.028;2022-09-12T17:39:09;3.95;;;1.77;;